Home > Products > Valid Products > TAF

000
FTUS43 KFSD 240520
TAFSUX
TAF
KSUX 240520Z 2406/2506 11008KT P6SM -SHRA OVC018
     FM240800 09009KT 6SM SHRA BR OVC007
     FM241400 10010KT P6SM OVC015
     FM242000 12006KT P6SM OVC045=



000
FTUS43 KFSD 240520
TAFFSD
TAF
KFSD 240520Z 2406/2506 12009KT P6SM VCSH OVC025
     FM240700 11008KT P6SM -SHRA OVC015
     FM241100 10011KT 6SM -SHRA BR OVC009
     FM241600 12011KT P6SM OVC015
     FM242100 10006KT P6SM OVC035=



000
FTUS43 KFSD 240520
TAFSUX
TAF
KSUX 240520Z 2406/2506 11008KT P6SM -SHRA OVC018
     FM240800 09009KT 6SM SHRA BR OVC007
     FM241400 10010KT P6SM OVC015
     FM242000 12006KT P6SM OVC045=



000
FTUS43 KFSD 240520
TAFHON
TAF
KHON 240520Z 2406/2506 11009KT P6SM -SHRA OVC025
     FM240800 08007KT P6SM -SHRA OVC015
     FM241100 08011KT 4SM -SHRA BR OVC008
     FM241800 08011KT P6SM OVC015
     FM242100 06006KT P6SM OVC025
     FM250100 04005KT P6SM OVC050=



000
FTUS43 KFSD 240520
TAFSUX
TAF
KSUX 240520Z 2406/2506 11008KT P6SM -SHRA OVC018
     FM240800 09009KT 6SM SHRA BR OVC007
     FM241400 10010KT P6SM OVC015
     FM242000 12006KT P6SM OVC045=



000
FTUS43 KFSD 240520
TAFHON
TAF
KHON 240520Z 2406/2506 11009KT P6SM -SHRA OVC025
     FM240800 08007KT P6SM -SHRA OVC015
     FM241100 08011KT 4SM -SHRA BR OVC008
     FM241800 08011KT P6SM OVC015
     FM242100 06006KT P6SM OVC025
     FM250100 04005KT P6SM OVC050=



000
FTUS43 KFSD 240205 AAA
TAFSUX
TAF AMD
KSUX 240205Z 2402/2424 14009KT P6SM OVC025
     FM240300 11008KT 5SM -SHRA OVC018
     FM240800 09009KT 5SM SHRA BR OVC007
     FM241400 10010KT P6SM OVC015
     FM242000 10006KT P6SM OVC035=



000
FTUS43 KFSD 240205 AAA
TAFSUX
TAF AMD
KSUX 240205Z 2402/2424 14009KT P6SM OVC025
     FM240300 11008KT 5SM -SHRA OVC018
     FM240800 09009KT 5SM SHRA BR OVC007
     FM241400 10010KT P6SM OVC015
     FM242000 10006KT P6SM OVC035=



000
FTUS43 KFSD 232351 CCA
TAFSUX
TAF COR
KSUX 232351Z 2400/2424 14009KT P6SM OVC025
     FM240500 11008KT 5SM -SHRA OVC018
     FM240900 09009KT 4SM SHRA BR OVC007
     FM241400 10010KT P6SM OVC015
     FM242000 10006KT P6SM OVC035=



000
FTUS43 KFSD 232351 CCA
TAFSUX
TAF COR
KSUX 232351Z 2400/2424 14009KT P6SM OVC025
     FM240500 11008KT 5SM -SHRA OVC018
     FM240900 09009KT 4SM SHRA BR OVC007
     FM241400 10010KT P6SM OVC015
     FM242000 10006KT P6SM OVC035=



000
FTUS43 KFSD 232351 CCA
TAFSUX
TAF COR
KSUX 232351Z 2400/2424 14009KT P6SM OVC025
     FM240500 11008KT 5SM -SHRA OVC018
     FM240900 09009KT 4SM SHRA BR OVC007
     FM241400 10010KT P6SM OVC015
     FM242000 10006KT P6SM OVC035=



000
FTUS43 KFSD 232320
TAFSUX
TAF
KSUX 232320Z 2400/2424 15013KT P6SM SCT020 OVC035
     FM240100 12009KT P6SM OVC025
     FM240500 11008KT 5SM -SHRA OVC018
     FM240900 09009KT 4SM SHRA BR OVC007
     FM241400 10010KT P6SM OVC015
     FM242000 10006KT P6SM OVC035=



000
FTUS43 KFSD 232320
TAFHON
TAF
KHON 232320Z 2400/2424 16011KT P6SM OVC035
     FM240600 11009KT P6SM OVC025
     FM240800 10007KT 6SM -SHRA BR OVC015
     FM241100 10011KT 4SM SHRA BR OVC008
     FM241600 12011KT P6SM OVC015
     FM242100 10006KT P6SM OVC035=



000
FTUS43 KFSD 232320
TAFSUX
TAF
KSUX 232320Z 2400/2424 15013KT P6SM SCT020 OVC035
     FM240100 12009KT P6SM OVC025
     FM240500 11008KT 5SM -SHRA OVC018
     FM240900 09009KT 4SM SHRA BR OVC007
     FM241400 10010KT P6SM OVC015
     FM242000 10006KT P6SM OVC035=



000
FTUS43 KFSD 232320
TAFFSD
TAF
KFSD 232320Z 2400/2424 15011G19KT P6SM SCT025 OVC035
     FM240400 12009KT P6SM OVC025
     FM240700 11008KT 6SM -SHRA BR OVC015
     FM241100 10011KT 4SM SHRA BR OVC009
     FM241600 12011KT P6SM OVC015
     FM242100 10006KT P6SM OVC035=



000
FTUS43 KFSD 231922 AAA
TAFSUX
TAF AMD
KSUX 231922Z 2319/2418 15013KT P6SM OVC025
     FM240100 12009KT P6SM OVC025
     FM240500 11008KT 5SM -SHRA OVC018
     FM241000 09009KT 4SM SHRA BR OVC009
     FM241600 10010KT 6SM BR OVC008=



000
FTUS43 KFSD 231922 AAA
TAFSUX
TAF AMD
KSUX 231922Z 2319/2418 15013KT P6SM OVC025
     FM240100 12009KT P6SM OVC025
     FM240500 11008KT 5SM -SHRA OVC018
     FM241000 09009KT 4SM SHRA BR OVC009
     FM241600 10010KT 6SM BR OVC008=



000
FTUS43 KFSD 231922 AAA
TAFSUX
TAF AMD
KSUX 231922Z 2319/2418 15013KT P6SM OVC025
     FM240100 12009KT P6SM OVC025
     FM240500 11008KT 5SM -SHRA OVC018
     FM241000 09009KT 4SM SHRA BR OVC009
     FM241600 10010KT 6SM BR OVC008=



000
FTUS43 KFSD 231922 AAA
TAFSUX
TAF AMD
KSUX 231922Z 2319/2418 15013KT P6SM OVC025
     FM240100 12009KT P6SM OVC025
     FM240500 11008KT 5SM -SHRA OVC018
     FM241000 09009KT 4SM SHRA BR OVC009
     FM241600 10010KT 6SM BR OVC008=



000
FTUS43 KFSD 231738
TAFSUX
TAF
KSUX 231738Z 2318/2418 15013KT P6SM OVC035
     FM240100 12009KT P6SM OVC025
     FM240500 11008KT 5SM -SHRA OVC018
     FM241000 09009KT 4SM SHRA BR OVC009
     FM241600 10010KT 6SM BR OVC008=



000
FTUS43 KFSD 231738
TAFSUX
TAF
KSUX 231738Z 2318/2418 15013KT P6SM OVC035
     FM240100 12009KT P6SM OVC025
     FM240500 11008KT 5SM -SHRA OVC018
     FM241000 09009KT 4SM SHRA BR OVC009
     FM241600 10010KT 6SM BR OVC008=



000
FTUS43 KFSD 231738
TAFFSD
TAF
KFSD 231738Z 2318/2418 15011G19KT P6SM OVC035
     FM240100 13010KT P6SM OVC025
     FM240300 12009KT P6SM OVC020
     FM240700 11008KT 6SM -SHRA BR OVC015
     FM241100 10011KT 4SM SHRA BR OVC009
     FM241700 12011KT 5SM BR OVC012=



000
FTUS43 KFSD 231738
TAFHON
TAF
KHON 231738Z 2318/2418 14013G20KT P6SM OVC040
     FM232300 14011KT P6SM OVC035
     FM240400 11009KT P6SM OVC025
     FM240900 10007KT 5SM -SHRA BR OVC015
     FM241400 07011KT 4SM SHRA BR OVC012=



000
FTUS43 KFSD 231738
TAFSUX
TAF
KSUX 231738Z 2318/2418 15013KT P6SM OVC035
     FM240100 12009KT P6SM OVC025
     FM240500 11008KT 5SM -SHRA OVC018
     FM241000 09009KT 4SM SHRA BR OVC009
     FM241600 10010KT 6SM BR OVC008=



000
FTUS43 KFSD 231738
TAFFSD
TAF
KFSD 231738Z 2318/2418 15011G19KT P6SM OVC035
     FM240100 13010KT P6SM OVC025
     FM240300 12009KT P6SM OVC020
     FM240700 11008KT 6SM -SHRA BR OVC015
     FM241100 10011KT 4SM SHRA BR OVC009
     FM241700 12011KT 5SM BR OVC012=



000
FTUS43 KFSD 231738
TAFHON
TAF
KHON 231738Z 2318/2418 14013G20KT P6SM OVC040
     FM232300 14011KT P6SM OVC035
     FM240400 11009KT P6SM OVC025
     FM240900 10007KT 5SM -SHRA BR OVC015
     FM241400 07011KT 4SM SHRA BR OVC012=



000
FTUS43 KFSD 231526 AAA
TAFHON
TAF AMD
KHON 231526Z 2315/2412 14009KT P6SM OVC040
      TEMPO 2315/2317 -SHRA OVC025
     FM231700 14013KT P6SM OVC040
     FM232300 14011KT P6SM -SHRA OVC035
     FM240500 11009KT 6SM -SHRA OVC025=



000
FTUS43 KFSD 231130
TAFSUX
TAF
KSUX 231130Z 2312/2412 13010KT P6SM OVC060
     FM232200 14014KT P6SM OVC040
     FM240100 12009KT 6SM -SHRA OVC025
     FM240500 13011KT 5SM -SHRA OVC018=



000
FTUS43 KFSD 231130
TAFSUX
TAF
KSUX 231130Z 2312/2412 13010KT P6SM OVC060
     FM232200 14014KT P6SM OVC040
     FM240100 12009KT 6SM -SHRA OVC025
     FM240500 13011KT 5SM -SHRA OVC018=



000
FTUS43 KFSD 231130
TAFHON
TAF
KHON 231130Z 2312/2412 12009KT P6SM VCSH OVC050
      TEMPO 2314/2316 -SHRA
     FM231700 14013KT P6SM OVC040
     FM232300 14011KT P6SM -SHRA OVC035
     FM240500 11009KT 6SM -SHRA OVC025=



000
FTUS43 KFSD 231130
TAFSUX
TAF
KSUX 231130Z 2312/2412 13010KT P6SM OVC060
     FM232200 14014KT P6SM OVC040
     FM240100 12009KT 6SM -SHRA OVC025
     FM240500 13011KT 5SM -SHRA OVC018=



000
FTUS43 KFSD 231130
TAFSUX
TAF
KSUX 231130Z 2312/2412 13010KT P6SM OVC060
     FM232200 14014KT P6SM OVC040
     FM240100 12009KT 6SM -SHRA OVC025
     FM240500 13011KT 5SM -SHRA OVC018=



000
FTUS43 KFSD 231130
TAFHON
TAF
KHON 231130Z 2312/2412 12009KT P6SM VCSH OVC050
      TEMPO 2314/2316 -SHRA
     FM231700 14013KT P6SM OVC040
     FM232300 14011KT P6SM -SHRA OVC035
     FM240500 11009KT 6SM -SHRA OVC025=



000
FTUS43 KFSD 231130
TAFFSD
TAF
KFSD 231130Z 2312/2412 14007KT P6SM BKN060
     FM231500 15010KT P6SM SCT035 BKN050
     FM232000 14013KT P6SM BKN035
     FM240300 12009KT P6SM -SHRA OVC025
     FM240500 13011KT 4SM -SHRA OVC015=



000
FTUS43 KFSD 231130
TAFFSD
TAF
KFSD 231130Z 2312/2412 14007KT P6SM BKN060
     FM231500 15010KT P6SM SCT035 BKN050
     FM232000 14013KT P6SM BKN035
     FM240300 12009KT P6SM -SHRA OVC025
     FM240500 13011KT 4SM -SHRA OVC015=



000
FTUS43 KFSD 230520
TAFSUX
TAF
KSUX 230520Z 2306/2406 12007KT P6SM OVC060
     FM231200 13010KT P6SM OVC050
     FM232000 14014KT P6SM OVC040
      TEMPO 2321/2401 -SHRA
     FM240100 12009KT P6SM -SHRA OVC025=



000
FTUS43 KFSD 230520
TAFFSD
TAF
KFSD 230520Z 2306/2406 17005KT P6SM BKN090
     FM230900 14007KT P6SM VCSH BKN050
     FM231500 15010KT P6SM OVC035
     FM232200 14013KT P6SM OVC035
     FM240130 12009KT P6SM -SHRA OVC025=



000
FTUS43 KFSD 230520
TAFHON
TAF
KHON 230520Z 2306/2406 17006KT P6SM SCT100 OVC200
     FM230800 13007KT P6SM OVC070
     FM231100 12009KT P6SM VCSH OVC050
     FM231500 14013KT P6SM OVC040
     FM232300 14011KT P6SM -SHRA OVC035
     FM240200 11009KT P6SM -SHRA OVC025=



000
FTUS43 KFSD 230520
TAFSUX
TAF
KSUX 230520Z 2306/2406 12007KT P6SM OVC060
     FM231200 13010KT P6SM OVC050
     FM232000 14014KT P6SM OVC040
      TEMPO 2321/2401 -SHRA
     FM240100 12009KT P6SM -SHRA OVC025=



000
FTUS43 KFSD 230216 AAA
TAFSUX
TAF AMD
KSUX 230216Z 2302/2324 12008KT P6SM OVC080
      TEMPO 2302/2305 -SHRA OVC050
     FM230500 11008KT P6SM VCSH BKN035
     FM231200 13010KT P6SM OVC025
     FM232000 14014KT P6SM OVC020
      TEMPO 2320/2324 5SM -SHRA OVC025=



000
FTUS43 KFSD 222341
TAFFSD
TAF
KFSD 222341Z 2300/2324 20013G20KT P6SM FEW090 OVC200
     FM230200 19010KT P6SM OVC150
     FM230400 18009KT P6SM BKN120
     FM230900 14009KT P6SM VCSH BKN035
     FM231500 15010KT P6SM OVC025
     FM232200 14013KT P6SM -SHRA OVC015=



000
FTUS43 KFSD 222341
TAFSUX
TAF
KSUX 222341Z 2300/2324 15009KT P6SM -SHRA BKN070 OVC100
     FM230200 11008KT P6SM OVC070
      TEMPO 2302/2305 5SM -SHRA OVC040
     FM230500 11008KT P6SM VCSH BKN035
     FM231200 13010KT P6SM OVC025
     FM232000 14014KT P6SM OVC020
      TEMPO 2320/2324 5SM -SHRA OVC025=



000
FTUS43 KFSD 222341
TAFHON
TAF
KHON 222341Z 2300/2324 17014G21KT P6SM SCT080 OVC250
     FM230200 18008KT P6SM OVC100
     FM230900 13007KT P6SM -SHRA OVC035
     FM231200 11010KT P6SM -SHRA OVC025
     FM231600 13011KT P6SM OVC025
     FM232100 14014KT P6SM OVC035=



000
FTUS43 KFSD 222341
TAFFSD
TAF
KFSD 222341Z 2300/2324 20013G20KT P6SM FEW090 OVC200
     FM230200 19010KT P6SM OVC150
     FM230400 18009KT P6SM BKN120
     FM230900 14009KT P6SM VCSH BKN035
     FM231500 15010KT P6SM OVC025
     FM232200 14013KT P6SM -SHRA OVC015=



000
FTUS43 KFSD 222341
TAFHON
TAF
KHON 222341Z 2300/2324 17014G21KT P6SM SCT080 OVC250
     FM230200 18008KT P6SM OVC100
     FM230900 13007KT P6SM -SHRA OVC035
     FM231200 11010KT P6SM -SHRA OVC025
     FM231600 13011KT P6SM OVC025
     FM232100 14014KT P6SM OVC035=



000
FTUS43 KFSD 222341
TAFSUX
TAF
KSUX 222341Z 2300/2324 15009KT P6SM -SHRA BKN070 OVC100
     FM230200 11008KT P6SM OVC070
      TEMPO 2302/2305 5SM -SHRA OVC040
     FM230500 11008KT P6SM VCSH BKN035
     FM231200 13010KT P6SM OVC025
     FM232000 14014KT P6SM OVC020
      TEMPO 2320/2324 5SM -SHRA OVC025=



000
FTUS43 KFSD 222341
TAFSUX
TAF
KSUX 222341Z 2300/2324 15009KT P6SM -SHRA BKN070 OVC100
     FM230200 11008KT P6SM OVC070
      TEMPO 2302/2305 5SM -SHRA OVC040
     FM230500 11008KT P6SM VCSH BKN035
     FM231200 13010KT P6SM OVC025
     FM232000 14014KT P6SM OVC020
      TEMPO 2320/2324 5SM -SHRA OVC025=



000
FTUS43 KFSD 222341
TAFSUX
TAF
KSUX 222341Z 2300/2324 15009KT P6SM -SHRA BKN070 OVC100
     FM230200 11008KT P6SM OVC070
      TEMPO 2302/2305 5SM -SHRA OVC040
     FM230500 11008KT P6SM VCSH BKN035
     FM231200 13010KT P6SM OVC025
     FM232000 14014KT P6SM OVC020
      TEMPO 2320/2324 5SM -SHRA OVC025=



000
FTUS43 KFSD 222222 AAB
TAFFSD
TAF AMD
KFSD 222222Z 2222/2318 20011KT P6SM OVC250
     FM230300 18009KT P6SM BKN120
     FM230900 14009KT P6SM VCSH BKN035
     FM231500 15010KT P6SM OVC025=



000
FTUS43 KFSD 222222 AAB
TAFFSD
TAF AMD
KFSD 222222Z 2222/2318 20011KT P6SM OVC250
     FM230300 18009KT P6SM BKN120
     FM230900 14009KT P6SM VCSH BKN035
     FM231500 15010KT P6SM OVC025=



000
FTUS43 KFSD 222218 AAA
TAFSUX
TAF AMD
KSUX 222218Z 2222/2318 21014G20KT P6SM SCT100 BKN250
     FM230000 18009KT P6SM BKN100
     FM230600 12008KT P6SM VCSH BKN035
     FM231200 15010KT P6SM OVC025=



000
FTUS43 KFSD 222218 AAA
TAFSUX
TAF AMD
KSUX 222218Z 2222/2318 21014G20KT P6SM SCT100 BKN250
     FM230000 18009KT P6SM BKN100
     FM230600 12008KT P6SM VCSH BKN035
     FM231200 15010KT P6SM OVC025=



000
FTUS43 KFSD 221720
TAFSUX
TAF
KSUX 221720Z 2218/2318 16007KT P6SM OVC250
     FM222100 19011KT P6SM SCT100 BKN250
     FM230000 18009KT P6SM BKN100
     FM230600 12008KT P6SM VCSH BKN035
     FM231200 15010KT P6SM OVC025=



000
FTUS43 KFSD 221720
TAFFSD
TAF
KFSD 221720Z 2218/2318 VRB04KT P6SM OVC250
     FM222100 17008KT P6SM OVC250
     FM230300 18009KT P6SM BKN120
     FM230900 14009KT P6SM VCSH BKN035
     FM231500 15010KT P6SM OVC025=



000
FTUS43 KFSD 221720
TAFHON
TAF
KHON 221720Z 2218/2318 VRB04KT P6SM OVC250
     FM222000 17012KT P6SM SCT080 OVC250
     FM230200 18008KT P6SM OVC100
     FM230900 13007KT P6SM -SHRA OVC035
     FM231500 14008KT P6SM OVC025=



000
FTUS43 KFSD 221720
TAFFSD
TAF
KFSD 221720Z 2218/2318 VRB04KT P6SM OVC250
     FM222100 17008KT P6SM OVC250
     FM230300 18009KT P6SM BKN120
     FM230900 14009KT P6SM VCSH BKN035
     FM231500 15010KT P6SM OVC025=



000
FTUS43 KFSD 221720
TAFHON
TAF
KHON 221720Z 2218/2318 VRB04KT P6SM OVC250
     FM222000 17012KT P6SM SCT080 OVC250
     FM230200 18008KT P6SM OVC100
     FM230900 13007KT P6SM -SHRA OVC035
     FM231500 14008KT P6SM OVC025=



000
FTUS43 KFSD 221720
TAFSUX
TAF
KSUX 221720Z 2218/2318 16007KT P6SM OVC250
     FM222100 19011KT P6SM SCT100 BKN250
     FM230000 18009KT P6SM BKN100
     FM230600 12008KT P6SM VCSH BKN035
     FM231200 15010KT P6SM OVC025=



000
FTUS43 KFSD 221720
TAFSUX
TAF
KSUX 221720Z 2218/2318 16007KT P6SM OVC250
     FM222100 19011KT P6SM SCT100 BKN250
     FM230000 18009KT P6SM BKN100
     FM230600 12008KT P6SM VCSH BKN035
     FM231200 15010KT P6SM OVC025=



000
FTUS43 KFSD 221720
TAFSUX
TAF
KSUX 221720Z 2218/2318 16007KT P6SM OVC250
     FM222100 19011KT P6SM SCT100 BKN250
     FM230000 18009KT P6SM BKN100
     FM230600 12008KT P6SM VCSH BKN035
     FM231200 15010KT P6SM OVC025=



000
FTUS43 KFSD 221131
TAFFSD
TAF
KFSD 221131Z 2212/2312 VRB03KT P6SM SCT250
     FM221500 14007KT P6SM SCT250
     FM222100 19013KT P6SM BKN100
     FM230300 18009KT P6SM BKN120
     FM230900 14009KT P6SM BKN030=



000
FTUS43 KFSD 221131
TAFSUX
TAF
KSUX 221131Z 2212/2312 VRB03KT P6SM BKN250
     FM221600 15007KT P6SM BKN250
     FM222000 19011KT P6SM SCT100 BKN250
     FM230000 18009KT P6SM BKN100
     FM230900 12008KT P6SM BKN030=



000
FTUS43 KFSD 221131
TAFFSD
TAF
KFSD 221131Z 2212/2312 VRB03KT P6SM SCT250
     FM221500 14007KT P6SM SCT250
     FM222100 19013KT P6SM BKN100
     FM230300 18009KT P6SM BKN120
     FM230900 14009KT P6SM BKN030=



000
FTUS43 KFSD 221131
TAFHON
TAF
KHON 221131Z 2212/2312 VRB03KT P6SM SCT250
     FM221500 14007KT P6SM SCT250
     FM222000 17012KT P6SM SCT080 BKN250
     FM230200 18008KT P6SM OVC100
     FM230900 13007KT P6SM -SHRA OVC025=



000
FTUS43 KFSD 221131
TAFSUX
TAF
KSUX 221131Z 2212/2312 VRB03KT P6SM BKN250
     FM221600 15007KT P6SM BKN250
     FM222000 19011KT P6SM SCT100 BKN250
     FM230000 18009KT P6SM BKN100
     FM230900 12008KT P6SM BKN030=



000
FTUS43 KFSD 221131
TAFHON
TAF
KHON 221131Z 2212/2312 VRB03KT P6SM SCT250
     FM221500 14007KT P6SM SCT250
     FM222000 17012KT P6SM SCT080 BKN250
     FM230200 18008KT P6SM OVC100
     FM230900 13007KT P6SM -SHRA OVC025=



000
FTUS43 KFSD 221131
TAFSUX
TAF
KSUX 221131Z 2212/2312 VRB03KT P6SM BKN250
     FM221600 15007KT P6SM BKN250
     FM222000 19011KT P6SM SCT100 BKN250
     FM230000 18009KT P6SM BKN100
     FM230900 12008KT P6SM BKN030=



000
FTUS43 KFSD 220523
TAFSUX
TAF
KSUX 220523Z 2206/2306 VRB03KT P6SM SKC
     FM221600 17007KT P6SM SCT250
     FM222000 19011KT P6SM OVC250
     FM230000 18009KT P6SM BKN100=



000
FTUS43 KFSD 220523
TAFFSD
TAF
KFSD 220523Z 2206/2306 VRB02KT P6SM FEW100
     FM221400 15007KT P6SM FEW250
     FM222100 18011G20KT P6SM OVC250
     FM230200 18009KT P6SM BKN100=



000
FTUS43 KFSD 220523
TAFHON
TAF
KHON 220523Z 2206/2306 VRB02KT P6SM FEW100
     FM221400 14005KT P6SM SKC
     FM222000 16008KT P6SM OVC250
     FM230200 17007KT P6SM OVC100=



000
FTUS43 KFSD 220523
TAFSUX
TAF
KSUX 220523Z 2206/2306 VRB03KT P6SM SKC
     FM221600 17007KT P6SM SCT250
     FM222000 19011KT P6SM OVC250
     FM230000 18009KT P6SM BKN100=



000
FTUS43 KFSD 220523
TAFSUX
TAF
KSUX 220523Z 2206/2306 VRB03KT P6SM SKC
     FM221600 17007KT P6SM SCT250
     FM222000 19011KT P6SM OVC250
     FM230000 18009KT P6SM BKN100=



000
FTUS43 KFSD 220523
TAFFSD
TAF
KFSD 220523Z 2206/2306 VRB02KT P6SM FEW100
     FM221400 15007KT P6SM FEW250
     FM222100 18011G20KT P6SM OVC250
     FM230200 18009KT P6SM BKN100=



000
FTUS43 KFSD 220523
TAFSUX
TAF
KSUX 220523Z 2206/2306 VRB03KT P6SM SKC
     FM221600 17007KT P6SM SCT250
     FM222000 19011KT P6SM OVC250
     FM230000 18009KT P6SM BKN100=



000
FTUS43 KFSD 220523
TAFHON
TAF
KHON 220523Z 2206/2306 VRB02KT P6SM FEW100
     FM221400 14005KT P6SM SKC
     FM222000 16008KT P6SM OVC250
     FM230200 17007KT P6SM OVC100=



000
FTUS43 KFSD 212320
TAFSUX
TAF
KSUX 212320Z 2200/2224 30008KT P6SM FEW100
     FM220300 VRB02KT P6SM SKC
     FM221700 15006KT P6SM SCT250
     FM222000 18009KT P6SM BKN100=



000
FTUS43 KFSD 212320
TAFFSD
TAF
KFSD 212320Z 2200/2224 32008KT P6SM SCT060
     FM220400 VRB02KT P6SM SKC
     FM221600 14006KT P6SM SCT250
     FM222000 18009KT P6SM BKN100=



000
FTUS43 KFSD 212320
TAFFSD
TAF
KFSD 212320Z 2200/2224 32008KT P6SM SCT060
     FM220400 VRB02KT P6SM SKC
     FM221600 14006KT P6SM SCT250
     FM222000 18009KT P6SM BKN100=



000
FTUS43 KFSD 212320
TAFSUX
TAF
KSUX 212320Z 2200/2224 30008KT P6SM FEW100
     FM220300 VRB02KT P6SM SKC
     FM221700 15006KT P6SM SCT250
     FM222000 18009KT P6SM BKN100=



000
FTUS43 KFSD 212320
TAFHON
TAF
KHON 212320Z 2200/2224 30012KT P6SM SCT090
     FM220500 VRB04KT P6SM SKC
     FM221600 14007KT P6SM SCT250
     FM222200 18013KT P6SM BKN100=



000
FTUS43 KFSD 212320
TAFSUX
TAF
KSUX 212320Z 2200/2224 30008KT P6SM FEW100
     FM220300 VRB02KT P6SM SKC
     FM221700 15006KT P6SM SCT250
     FM222000 18009KT P6SM BKN100=



000
FTUS43 KFSD 212320
TAFHON
TAF
KHON 212320Z 2200/2224 30012KT P6SM SCT090
     FM220500 VRB04KT P6SM SKC
     FM221600 14007KT P6SM SCT250
     FM222200 18013KT P6SM BKN100=



000
FTUS43 KFSD 212320
TAFSUX
TAF
KSUX 212320Z 2200/2224 30008KT P6SM FEW100
     FM220300 VRB02KT P6SM SKC
     FM221700 15006KT P6SM SCT250
     FM222000 18009KT P6SM BKN100=



000
FTUS43 KFSD 211720
TAFFSD
TAF
KFSD 211720Z 2118/2218 30015G23KT P6SM SKC
     FM220000 32008KT P6SM SCT060
     FM220400 VRB02KT P6SM SCT060
     FM221600 14006KT P6SM SCT060=



000
FTUS43 KFSD 211720
TAFHON
TAF
KHON 211720Z 2118/2218 30012KT P6SM SCT090
     FM220100 35005KT P6SM SKC
     FM220500 VRB02KT P6SM SKC
     FM221600 14007KT P6SM SKC=



000
FTUS43 KFSD 211720
TAFSUX
TAF
KSUX 211720Z 2118/2218 30012KT P6SM SKC
     FM212200 30008KT P6SM SKC
     FM220300 VRB02KT P6SM SKC
     FM221700 15006KT P6SM SKC=



000
FTUS43 KFSD 211720
TAFSUX
TAF
KSUX 211720Z 2118/2218 30012KT P6SM SKC
     FM212200 30008KT P6SM SKC
     FM220300 VRB02KT P6SM SKC
     FM221700 15006KT P6SM SKC=



000
FTUS43 KFSD 211720
TAFFSD
TAF
KFSD 211720Z 2118/2218 30015G23KT P6SM SKC
     FM220000 32008KT P6SM SCT060
     FM220400 VRB02KT P6SM SCT060
     FM221600 14006KT P6SM SCT060=



000
FTUS43 KFSD 211720
TAFHON
TAF
KHON 211720Z 2118/2218 30012KT P6SM SCT090
     FM220100 35005KT P6SM SKC
     FM220500 VRB02KT P6SM SKC
     FM221600 14007KT P6SM SKC=



000
FTUS43 KFSD 211720
TAFSUX
TAF
KSUX 211720Z 2118/2218 30012KT P6SM SKC
     FM212200 30008KT P6SM SKC
     FM220300 VRB02KT P6SM SKC
     FM221700 15006KT P6SM SKC=



000
FTUS43 KFSD 211720
TAFSUX
TAF
KSUX 211720Z 2118/2218 30012KT P6SM SKC
     FM212200 30008KT P6SM SKC
     FM220300 VRB02KT P6SM SKC
     FM221700 15006KT P6SM SKC=



000
FTUS43 KFSD 211122
TAFSUX
TAF
KSUX 211122Z 2112/2212 29006KT P6SM SKC
     FM211500 30011KT P6SM FEW090
     FM220100 28006KT P6SM SKC
     FM220500 00000KT P6SM FEW060=



000
FTUS43 KFSD 211122
TAFSUX
TAF
KSUX 211122Z 2112/2212 29006KT P6SM SKC
     FM211500 30011KT P6SM FEW090
     FM220100 28006KT P6SM SKC
     FM220500 00000KT P6SM FEW060=



000
FTUS43 KFSD 211122
TAFHON
TAF
KHON 211122Z 2112/2212 28008KT P6SM FEW090
     FM211600 31010KT P6SM FEW090
     FM220100 35005KT P6SM SKC
     FM220500 VRB02KT P6SM FEW060=



000
FTUS43 KFSD 211122
TAFSUX
TAF
KSUX 211122Z 2112/2212 29006KT P6SM SKC
     FM211500 30011KT P6SM FEW090
     FM220100 28006KT P6SM SKC
     FM220500 00000KT P6SM FEW060=



000
FTUS43 KFSD 211122
TAFFSD
TAF
KFSD 211122Z 2112/2212 28009KT P6SM FEW090
     FM211600 30015G23KT P6SM FEW090
     FM212200 32011KT P6SM FEW090
     FM220100 32007KT P6SM FEW090
     FM220400 00000KT P6SM FEW060=



000
FTUS43 KFSD 211122
TAFHON
TAF
KHON 211122Z 2112/2212 28008KT P6SM FEW090
     FM211600 31010KT P6SM FEW090
     FM220100 35005KT P6SM SKC
     FM220500 VRB02KT P6SM FEW060=



000
FTUS43 KFSD 211122
TAFFSD
TAF
KFSD 211122Z 2112/2212 28009KT P6SM FEW090
     FM211600 30015G23KT P6SM FEW090
     FM212200 32011KT P6SM FEW090
     FM220100 32007KT P6SM FEW090
     FM220400 00000KT P6SM FEW060=



000
FTUS43 KFSD 211122
TAFSUX
TAF
KSUX 211122Z 2112/2212 29006KT P6SM SKC
     FM211500 30011KT P6SM FEW090
     FM220100 28006KT P6SM SKC
     FM220500 00000KT P6SM FEW060=



    US Dept of Commerce
    National Oceanic and Atmospheric Administration
    National Weather Service
    1325 East West Highway
    Silver Spring, MD 20910
    Page Author: NWS Internet Services Team
Disclaimer
Information Quality
Credits
Glossary
Privacy Policy
Freedom of Information Act (FOIA)
About Us
Career Opportunities